Terminal Aerodrome Forecast
Issued by NWS Rapid City, SD

Home | Current Version | Previous Version | Graphics & Text | Print | Product List | Glossary On
Versions: 1 2 3 4 5 6 7 8 9 10 11 12 13 14 15 16 17 18
280
FTUS43 KUNR 022320
TAFRAP
TAF
KRAP 022320Z 0300/0324 36008KT P6SM -SN OVC015
      TEMPO 0300/0303 1SM -SN OVC015
     FM030500 35008KT P6SM OVC015
     FM030900 33006KT P6SM BKN060=

USA.gov is the U.S. government's official web portal to all federal, state and local government web resources and services.